Inez, Texas
Current Conditions -  °F | °C
As of 12:51 PM on Saturday 25 Oct 2014 (Local Time) from KVCT Reporting Station
Clear Clear  
Wind Chill: 83°   Ceiling: Unl
Heat Index: 83°   Visibility: 10mi
Dew Point: 58°   Wind: 3mph
Humidity: 42%   Direction: NA
Pressure: 30.16"   Gusts: NA
Location:  28.9°N, 96.79°W
Report Text: KVCT 251751Z VRB03KT 10SM CLR 28/14 A3016 RMK AO2 SLP210 T02830144 10289 20144 58013
Loading
Personal Weather Stations






























Interactive Weather Map
Tropical Storm Tracking
New forecast layout! Learn more

10-Day Weather Forecast

Advertisements
Track Severe Weather on mobile